Time;durP1;ratioP1;P1;durP2;ratioP2;P2;SDS_P1;SDS_P2;PMS_P1;PMS_P2;Temp;Humidity;BMP_temperature;BMP_pressure;BME280_temperature;BME280_humidity;BME280_pressure;Samples;Min_cycle;Max_cycle;Signal;HPM_P1;HPM_P2
2021/12/31 00:00:55;;;;;;;12.10;7.03;;;12.70;99.90;;;;;;5091637;28;20545;-71
2021/12/31 00:03:21;;;;;;;8.97;6.63;;;12.70;99.90;;;;;;5073665;28;20533;-71
2021/12/31 00:05:46;;;;;;;7.73;6.73;;;12.80;99.90;;;;;;5073904;28;20178;-69
2021/12/31 00:08:12;;;;;;;8.70;6.87;;;12.80;99.90;;;;;;5091758;28;20607;-70
2021/12/31 00:10:38;;;;;;;8.73;6.63;;;12.80;99.90;;;;;;5073645;28;20198;-69
2021/12/31 00:13:03;;;;;;;9.37;6.67;;;12.80;99.90;;;;;;5073890;28;20166;-69
2021/12/31 00:15:29;;;;;;;7.83;6.30;;;12.70;99.90;;;;;;5092324;28;20551;-70
2021/12/31 00:17:54;;;;;;;10.77;7.60;;;12.80;99.90;;;;;;5091209;28;20174;-70
2021/12/31 00:20:24;;;;;;;9.87;7.07;;;12.70;99.90;;;;;;5073329;28;20198;-70
2021/12/31 00:23:07;;;;;;;8.87;7.50;;;12.70;99.90;;;;;;5091665;28;20699;-71
2021/12/31 00:25:37;;;;;;;8.90;7.60;;;12.70;99.90;;;;;;5073671;28;20522;-70
2021/12/31 00:28:03;;;;;;;8.43;7.27;;;12.70;99.90;;;;;;5073290;28;20186;-70
2021/12/31 00:30:29;;;;;;;12.40;8.37;;;12.70;99.90;;;;;;5073277;28;20696;-70
2021/12/31 00:32:55;;;;;;;11.73;8.87;;;12.70;99.90;;;;;;5091517;28;20174;-70
2021/12/31 00:35:21;;;;;;;10.97;8.90;;;12.70;99.90;;;;;;5073613;28;20205;-70
2021/12/31 00:37:47;;;;;;;10.83;8.30;;;12.80;99.90;;;;;;5091206;28;20249;-71
2021/12/31 00:40:16;;;;;;;12.40;9.50;;;12.80;99.90;;;;;;5073534;28;20183;-71
2021/12/31 00:42:42;;;;;;;13.87;9.00;;;12.70;99.90;;;;;;5073222;28;20228;-70
2021/12/31 00:45:10;;;;;;;12.83;9.80;;;12.80;99.90;;;;;;5074213;28;20807;-70
2021/12/31 00:47:35;;;;;;;11.73;9.00;;;12.80;99.90;;;;;;5095443;28;20629;-70
2021/12/31 00:50:01;;;;;;;10.97;8.87;;;12.80;99.90;;;;;;5095297;28;20189;-70
2021/12/31 00:52:27;;;;;;;12.27;8.63;;;12.80;99.90;;;;;;5077132;28;20638;-70
2021/12/31 00:54:52;;;;;;;11.47;9.03;;;12.80;99.90;;;;;;5077376;28;20276;-70
2021/12/31 00:57:18;;;;;;;11.57;9.40;;;12.80;99.90;;;;;;5076877;28;20193;-70
2021/12/31 00:59:43;;;;;;;9.90;8.60;;;12.80;99.90;;;;;;5076814;28;20171;-70
2021/12/31 01:02:12;;;;;;;10.93;8.63;;;12.80;99.90;;;;;;5094739;28;20171;-70
2021/12/31 01:04:38;;;;;;;10.63;8.03;;;12.80;99.90;;;;;;5095036;28;20250;-70
2021/12/31 01:07:04;;;;;;;9.17;8.27;;;12.90;99.90;;;;;;5094860;28;20257;-69
2021/12/31 01:09:31;;;;;;;10.03;8.27;;;12.90;99.90;;;;;;5076481;28;20546;-72
2021/12/31 01:11:57;;;;;;;9.87;8.17;;;12.90;99.90;;;;;;5076346;28;20599;-70
2021/12/31 01:16:58;;;;;;;8.67;7.30;;;12.90;99.90;;;;;;5094848;28;20159;-70
2021/12/31 01:21:50;;;;;;;8.57;7.67;;;12.90;99.90;;;;;;5094510;28;20183;-72
2021/12/31 01:24:18;;;;;;;8.90;7.97;;;12.90;99.90;;;;;;5094522;28;20177;-70
2021/12/31 01:26:44;;;;;;;7.73;6.93;;;12.90;99.90;;;;;;5094417;28;20471;-70
2021/12/31 01:29:09;;;;;;;10.73;8.50;;;12.90;99.90;;;;;;5094156;28;20178;-70
2021/12/31 01:31:35;;;;;;;10.53;8.30;;;12.90;99.90;;;;;;5094138;28;20214;-70
2021/12/31 01:34:01;;;;;;;10.60;7.87;;;12.90;99.90;;;;;;5075538;28;20190;-71
2021/12/31 01:36:27;;;;;;;9.60;7.73;;;12.90;99.90;;;;;;5075832;28;20188;-70
2021/12/31 01:38:53;;;;;;;9.80;7.87;;;12.90;99.90;;;;;;5093920;28;20631;-70
2021/12/31 01:41:20;;;;;;;10.77;7.63;;;12.90;99.90;;;;;;5076055;28;20196;-70
2021/12/31 01:43:46;;;;;;;8.23;7.17;;;13.00;99.90;;;;;;5094324;28;20250;-71
2021/12/31 01:46:12;;;;;;;8.70;7.80;;;12.90;99.90;;;;;;5075852;28;20263;-70
2021/12/31 01:49:00;;;;;;;9.07;7.43;;;12.90;99.90;;;;;;5075762;28;20308;-70
2021/12/31 01:51:26;;;;;;;7.53;6.43;;;13.00;99.90;;;;;;5075576;28;20193;-71
2021/12/31 01:53:52;;;;;;;7.83;5.97;;;13.00;99.90;;;;;;5075747;28;20186;-70
2021/12/31 01:56:19;;;;;;;6.57;5.83;;;13.00;99.90;;;;;;5075183;28;20634;-70
2021/12/31 01:58:47;;;;;;;7.03;5.37;;;13.10;99.90;;;;;;5091091;28;20176;-70
2021/12/31 02:01:13;;;;;;;6.77;5.80;;;13.10;99.90;;;;;;5091456;28;20675;-70
2021/12/31 02:03:38;;;;;;;6.30;5.70;;;13.10;99.90;;;;;;5090955;28;20166;-71
2021/12/31 02:06:05;;;;;;;8.63;6.40;;;13.10;99.90;;;;;;5093069;28;20171;-70
2021/12/31 02:08:31;;;;;;;6.53;5.50;;;13.10;99.90;;;;;;5075118;28;20182;-70
2021/12/31 02:10:57;;;;;;;8.13;5.67;;;13.00;99.90;;;;;;5075149;28;20289;-70
2021/12/31 02:13:24;;;;;;;8.10;6.03;;;13.00;99.90;;;;;;5075586;28;20181;-70
2021/12/31 02:15:51;;;;;;;6.87;5.87;;;13.00;99.90;;;;;;5075175;28;20684;-71
2021/12/31 02:18:16;;;;;;;6.93;5.80;;;13.00;99.90;;;;;;5074915;28;20206;-70
2021/12/31 02:20:47;;;;;;;5.70;5.07;;;13.10;99.90;;;;;;5074966;28;20186;-71
2021/12/31 02:23:26;;;;;;;7.53;6.10;;;13.10;99.90;;;;;;5075362;28;20595;-71
2021/12/31 02:25:52;;;;;;;8.00;6.17;;;13.00;99.90;;;;;;5074915;28;20166;-70
2021/12/31 02:28:18;;;;;;;7.53;5.90;;;13.00;99.90;;;;;;5074581;28;20185;-70
2021/12/31 02:30:44;;;;;;;6.93;5.90;;;13.00;99.90;;;;;;5074807;28;20209;-70
2021/12/31 02:33:10;;;;;;;8.67;6.07;;;13.00;99.90;;;;;;5092935;28;20174;-70
2021/12/31 02:35:37;;;;;;;9.73;6.37;;;13.00;99.90;;;;;;5075022;28;20205;-70
2021/12/31 02:38:04;;;;;;;7.97;6.47;;;13.00;99.90;;;;;;5092501;28;20167;-70
2021/12/31 02:40:31;;;;;;;8.07;6.40;;;13.00;99.90;;;;;;5092955;28;20502;-70
2021/12/31 02:42:57;;;;;;;8.90;6.70;;;13.00;99.90;;;;;;5074505;28;20174;-70
2021/12/31 02:45:34;;;;;;;7.97;7.00;;;13.00;99.90;;;;;;5074649;28;20269;-70
2021/12/31 02:48:02;;;;;;;8.87;6.67;;;13.00;99.90;;;;;;5074258;28;20261;-70
2021/12/31 02:50:35;;;;;;;8.27;6.37;;;13.00;99.90;;;;;;5092821;28;20190;-70
2021/12/31 02:53:07;;;;;;;7.47;5.77;;;13.00;99.90;;;;;;5074255;28;20304;-70
2021/12/31 02:55:35;;;;;;;9.83;7.47;;;13.00;99.90;;;;;;5074534;28;20274;-70
2021/12/31 02:58:03;;;;;;;9.07;7.00;;;13.00;99.90;;;;;;5074002;28;20166;-71
2021/12/31 03:00:29;;;;;;;8.43;6.93;;;13.00;99.90;;;;;;5092895;28;20189;-70
2021/12/31 03:02:56;;;;;;;7.97;6.50;;;13.00;99.90;;;;;;5074152;28;20170;-70
2021/12/31 03:05:23;;;;;;;9.10;7.00;;;13.00;99.90;;;;;;5092696;28;20175;-70
2021/12/31 03:07:50;;;;;;;10.93;7.40;;;12.90;99.90;;;;;;5073689;28;20236;-70
2021/12/31 03:10:17;;;;;;;8.70;7.70;;;12.90;99.90;;;;;;5074128;28;20225;-70
2021/12/31 03:12:58;;;;;;;11.80;8.67;;;12.90;99.90;;;;;;5073580;28;20266;-70
2021/12/31 03:15:26;;;;;;;12.03;8.27;;;12.90;99.90;;;;;;5091885;28;20256;-70
2021/12/31 03:17:52;;;;;;;11.27;8.03;;;12.90;99.90;;;;;;5073718;28;20197;-70
2021/12/31 03:20:35;;;;;;;10.77;8.53;;;12.90;99.90;;;;;;5074168;28;20194;-71
2021/12/31 03:23:01;;;;;;;11.90;9.33;;;12.90;99.90;;;;;;5073663;28;20642;-70
2021/12/31 03:25:26;;;;;;;11.13;8.43;;;12.90;99.90;;;;;;5073972;28;20186;-70
2021/12/31 03:27:52;;;;;;;11.37;9.00;;;12.90;99.90;;;;;;5073372;28;20171;-70
2021/12/31 03:30:18;;;;;;;11.33;8.80;;;12.90;99.90;;;;;;5091944;28;20210;-71
2021/12/31 03:32:44;;;;;;;11.80;8.57;;;12.90;99.90;;;;;;5091900;28;20584;-70
2021/12/31 03:35:09;;;;;;;10.60;8.57;;;12.90;99.90;;;;;;5073721;28;20225;-70
2021/12/31 03:37:35;;;;;;;11.83;8.17;;;12.90;99.90;;;;;;5073852;28;20532;-71
2021/12/31 03:40:00;;;;;;;12.00;8.60;;;12.90;99.90;;;;;;5073219;28;20273;-70
2021/12/31 03:42:26;;;;;;;10.07;8.13;;;13.00;99.90;;;;;;5073451;28;20166;-70
2021/12/31 03:44:51;;;;;;;10.60;8.97;;;13.00;99.90;;;;;;5073425;28;20170;-71
2021/12/31 03:47:17;;;;;;;10.77;8.67;;;13.00;99.90;;;;;;5091633;28;20559;-70
2021/12/31 03:49:42;;;;;;;12.10;8.77;;;13.00;99.90;;;;;;5073250;28;20216;-70
2021/12/31 03:52:08;;;;;;;9.70;7.97;;;13.00;99.90;;;;;;5073507;28;20181;-71
2021/12/31 03:54:33;;;;;;;11.33;8.60;;;13.00;99.90;;;;;;5073408;28;20234;-70
2021/12/31 03:56:59;;;;;;;10.33;7.80;;;13.00;99.90;;;;;;5073167;28;20185;-70
2021/12/31 03:59:25;;;;;;;14.17;8.83;;;13.00;99.90;;;;;;5073024;28;20178;-70
2021/12/31 04:01:50;;;;;;;9.20;7.90;;;13.00;99.90;;;;;;5073145;28;20186;-70
2021/12/31 04:04:16;;;;;;;11.00;8.13;;;12.90;99.90;;;;;;5073510;28;20177;-70
2021/12/31 04:06:41;;;;;;;10.00;7.53;;;12.90;99.90;;;;;;5073303;28;20506;-70
2021/12/31 04:09:07;;;;;;;10.57;7.77;;;13.00;99.90;;;;;;5073070;28;20186;-70
2021/12/31 04:11:33;;;;;;;10.23;8.43;;;13.00;99.90;;;;;;5072967;28;20190;-70
2021/12/31 04:13:58;;;;;;;9.93;7.77;;;12.90;99.90;;;;;;5091078;28;20177;-70
2021/12/31 04:16:24;;;;;;;9.90;8.40;;;12.90;99.90;;;;;;5091486;28;20529;-70
2021/12/31 04:18:49;;;;;;;10.27;8.17;;;12.90;99.90;;;;;;5073137;28;20178;-70
2021/12/31 04:21:17;;;;;;;10.87;7.57;;;12.90;99.90;;;;;;5072639;28;20206;-71
2021/12/31 04:24:04;;;;;;;10.67;7.60;;;12.90;99.90;;;;;;5091323;28;20186;-70
2021/12/31 04:26:30;;;;;;;9.33;7.60;;;12.90;99.90;;;;;;5073177;28;20173;-70
2021/12/31 04:28:55;;;;;;;10.90;7.33;;;12.90;99.90;;;;;;5091223;28;20170;-70
2021/12/31 04:31:21;;;;;;;9.73;7.63;;;12.90;99.90;;;;;;5105988;22;20256;-72
2021/12/31 04:33:47;;;;;;;11.37;8.13;;;12.90;99.90;;;;;;5094596;28;20188;-73
2021/12/31 04:36:12;;;;;;;11.20;7.23;;;12.90;99.90;;;;;;5112640;28;20638;-73
2021/12/31 04:38:38;;;;;;;10.37;7.50;;;12.90;99.90;;;;;;5112237;28;20177;-72
2021/12/31 04:41:03;;;;;;;9.80;6.93;;;12.90;99.90;;;;;;5112818;28;20198;-73
2021/12/31 04:43:29;;;;;;;9.80;7.50;;;12.90;99.90;;;;;;5112786;28;20178;-73
2021/12/31 04:45:55;;;;;;;7.27;6.30;;;12.90;99.90;;;;;;5112798;28;20177;-74
2021/12/31 04:48:21;;;;;;;7.87;6.70;;;12.90;99.90;;;;;;5112702;28;20166;-73
2021/12/31 04:50:47;;;;;;;9.87;6.70;;;12.90;99.90;;;;;;5112847;28;20189;-73
2021/12/31 04:53:12;;;;;;;9.43;6.60;;;12.90;99.90;;;;;;5111158;28;20169;-74
2021/12/31 04:55:38;;;;;;;8.27;5.87;;;12.90;99.90;;;;;;5112816;28;20208;-75
2021/12/31 04:58:03;;;;;;;5.70;5.10;;;12.90;99.90;;;;;;5112297;28;20185;-73
2021/12/31 05:00:29;;;;;;;8.07;5.13;;;12.90;99.90;;;;;;5111338;28;20186;-73
2021/12/31 05:02:54;;;;;;;5.97;4.77;;;12.90;99.90;;;;;;5111255;28;20200;-73
2021/12/31 05:05:20;;;;;;;6.83;4.27;;;13.00;99.90;;;;;;5111575;28;20182;-74
2021/12/31 05:07:46;;;;;;;5.53;4.63;;;13.00;99.90;;;;;;5111214;28;20540;-73
2021/12/31 05:10:11;;;;;;;4.90;4.43;;;13.00;99.90;;;;;;5111543;28;20533;-72
2021/12/31 05:12:38;;;;;;;5.77;4.30;;;13.00;99.90;;;;;;5112597;28;20227;-74
2021/12/31 05:15:07;;;;;;;4.90;4.07;;;13.00;99.90;;;;;;5111551;28;20193;-72
2021/12/31 05:17:33;;;;;;;6.73;4.17;;;13.00;99.90;;;;;;5112539;28;20193;-73
2021/12/31 05:20:00;;;;;;;5.37;4.23;;;13.00;99.90;;;;;;5110728;28;20178;-72
2021/12/31 05:22:25;;;;;;;6.30;4.00;;;13.00;99.90;;;;;;5110967;28;20190;-73
2021/12/31 05:24:51;;;;;;;4.33;3.93;;;13.00;99.90;;;;;;5094311;28;20174;-73
2021/12/31 05:27:16;;;;;;;4.13;3.73;;;13.00;99.90;;;;;;5094022;28;20174;-73
2021/12/31 05:29:42;;;;;;;3.87;3.27;;;13.00;99.90;;;;;;5110988;28;20265;-74
2021/12/31 05:32:08;;;;;;;4.87;3.90;;;13.00;99.90;;;;;;5112567;28;20201;-72
2021/12/31 05:34:33;;;;;;;4.73;4.07;;;13.10;99.90;;;;;;5115950;28;20193;-73
2021/12/31 05:36:59;;;;;;;9.13;3.57;;;13.00;99.90;;;;;;5114484;28;20169;-73
2021/12/31 05:39:25;;;;;;;3.33;2.93;;;13.10;99.90;;;;;;5097565;28;20227;-73
2021/12/31 05:41:52;;;;;;;5.77;3.93;;;13.10;99.90;;;;;;5114229;28;20269;-73
2021/12/31 05:44:17;;;;;;;3.93;3.50;;;13.10;99.90;;;;;;5114640;28;20249;-73
2021/12/31 05:46:47;;;;;;;5.03;3.73;;;13.10;99.90;;;;;;5114866;28;20169;-73
2021/12/31 05:49:13;;;;;;;4.83;3.33;;;13.00;99.90;;;;;;5097207;28;20174;-73
2021/12/31 05:51:38;;;;;;;3.93;3.63;;;13.10;99.90;;;;;;5114225;28;20666;-72
2021/12/31 05:54:04;;;;;;;4.07;3.50;;;13.10;99.90;;;;;;5115579;28;20166;-73
2021/12/31 05:56:29;;;;;;;4.10;3.73;;;13.10;99.90;;;;;;5115662;28;20169;-73
2021/12/31 05:58:55;;;;;;;3.47;3.27;;;13.00;99.90;;;;;;5114322;28;20178;-72
2021/12/31 06:01:21;;;;;;;4.17;3.30;;;13.10;99.90;;;;;;5097025;28;20285;-72
2021/12/31 06:03:46;;;;;;;5.17;4.13;;;13.10;99.90;;;;;;5097278;28;20319;-72
2021/12/31 06:06:12;;;;;;;3.80;3.50;;;13.10;99.90;;;;;;5096859;28;20182;-72
2021/12/31 06:08:38;;;;;;;3.80;3.50;;;13.10;99.90;;;;;;5114219;28;20184;-72
2021/12/31 06:11:03;;;;;;;4.00;3.63;;;13.10;99.90;;;;;;5116024;28;20657;-72
2021/12/31 06:13:30;;;;;;;4.87;3.57;;;13.10;99.90;;;;;;5116877;28;20199;-73
2021/12/31 06:15:58;;;;;;;4.50;3.30;;;13.10;99.90;;;;;;5116407;28;20202;-73
2021/12/31 06:18:27;;;;;;;5.03;3.90;;;13.10;99.90;;;;;;5116258;28;20565;-72
2021/12/31 06:20:53;;;;;;;4.23;3.83;;;13.10;99.90;;;;;;5113883;28;20190;-75
2021/12/31 06:23:19;;;;;;;4.50;3.53;;;13.10;99.90;;;;;;5114069;28;20169;-74
2021/12/31 06:25:44;;;;;;;4.83;3.90;;;13.10;99.90;;;;;;5113950;28;20176;-74
2021/12/31 06:28:11;;;;;;;5.33;4.10;;;13.10;99.90;;;;;;5114943;28;20228;-73
2021/12/31 06:30:36;;;;;;;4.50;4.10;;;13.10;99.90;;;;;;5113893;28;20830;-73
2021/12/31 06:33:02;;;;;;;6.20;3.73;;;13.10;99.90;;;;;;5115112;28;20231;-73
2021/12/31 06:35:28;;;;;;;4.43;3.80;;;13.10;99.90;;;;;;5113807;28;20661;-73
2021/12/31 06:37:55;;;;;;;4.53;4.13;;;13.10;99.90;;;;;;5113243;28;20619;-74
2021/12/31 06:40:22;;;;;;;7.93;3.97;;;13.10;99.90;;;;;;5096731;28;20169;-73
2021/12/31 06:42:48;;;;;;;4.97;4.00;;;13.10;99.90;;;;;;5114314;28;20166;-74
2021/12/31 06:45:14;;;;;;;7.53;4.72;;;13.10;99.90;;;;;;5113399;28;20231;-75
2021/12/31 06:47:39;;;;;;;6.20;4.30;;;13.10;99.90;;;;;;5096203;28;20174;-73
2021/12/31 06:50:05;;;;;;;4.80;4.40;;;13.10;99.90;;;;;;5113126;28;20174;-73
2021/12/31 06:52:39;;;;;;;4.73;4.23;;;13.10;99.90;;;;;;5113499;28;20666;-73
2021/12/31 06:55:08;;;;;;;5.40;3.80;;;13.10;99.90;;;;;;5113312;28;20206;-74
2021/12/31 06:57:35;;;;;;;5.93;4.47;;;13.10;99.90;;;;;;5113115;28;20294;-73
2021/12/31 07:00:00;;;;;;;4.40;4.00;;;13.10;99.90;;;;;;5114471;28;20170;-74
2021/12/31 07:02:26;;;;;;;4.70;4.20;;;13.10;99.90;;;;;;5112797;28;20214;-74
2021/12/31 07:04:51;;;;;;;5.37;4.37;;;13.10;99.90;;;;;;5112609;28;20177;-73
2021/12/31 07:07:17;;;;;;;6.10;4.03;;;13.10;99.90;;;;;;5112564;28;20177;-75
2021/12/31 07:09:42;;;;;;;5.63;4.43;;;13.10;99.90;;;;;;5114129;28;20166;-73
2021/12/31 07:12:08;;;;;;;4.70;4.07;;;13.10;99.90;;;;;;5114367;28;20221;-73
2021/12/31 07:14:34;;;;;;;4.37;3.90;;;13.10;99.90;;;;;;5096086;28;20239;-74
2021/12/31 07:16:59;;;;;;;5.10;4.03;;;13.10;99.90;;;;;;5111873;28;20265;-74
2021/12/31 07:19:25;;;;;;;4.83;4.40;;;13.10;99.90;;;;;;5095199;28;20755;-73
2021/12/31 07:21:51;;;;;;;6.22;3.85;;;13.10;99.90;;;;;;5112441;28;20192;-73
2021/12/31 07:24:16;;;;;;;4.70;3.83;;;13.10;99.90;;;;;;5112760;28;20174;-74
2021/12/31 07:26:42;;;;;;;4.95;3.65;;;13.10;99.90;;;;;;5112641;28;20230;-73
2021/12/31 07:29:07;;;;;;;5.40;3.90;;;13.10;99.90;;;;;;5111950;28;20184;-73
2021/12/31 07:31:33;;;;;;;5.27;3.90;;;13.10;99.90;;;;;;5095177;28;20209;-74
2021/12/31 07:33:58;;;;;;;4.17;3.57;;;13.10;99.90;;;;;;5112180;28;20181;-75
2021/12/31 07:36:25;;;;;;;4.97;3.70;;;13.10;99.90;;;;;;5112361;28;20166;-74
2021/12/31 07:38:59;;;;;;;5.57;3.80;;;13.10;99.90;;;;;;5112163;28;20182;-74
2021/12/31 07:41:24;;;;;;;4.17;3.70;;;13.10;99.90;;;;;;5095239;28;20258;-73
2021/12/31 07:43:50;;;;;;;4.63;3.60;;;13.10;99.90;;;;;;5112183;28;20230;-74
2021/12/31 07:46:15;;;;;;;4.32;3.67;;;13.20;99.90;;;;;;5095092;28;20580;-74
2021/12/31 07:48:41;;;;;;;6.13;4.20;;;13.20;99.90;;;;;;5113015;28;20166;-73
2021/12/31 07:51:06;;;;;;;4.60;4.10;;;13.20;99.90;;;;;;5112072;28;20234;-74
2021/12/31 07:53:32;;;;;;;5.40;3.50;;;13.30;99.90;;;;;;5113748;28;20936;-72
2021/12/31 07:55:58;;;;;;;5.40;3.72;;;13.30;99.90;;;;;;5111765;28;20223;-72
2021/12/31 07:58:24;;;;;;;3.87;3.47;;;13.30;99.90;;;;;;5112008;28;20165;-73
2021/12/31 08:00:50;;;;;;;3.80;3.50;;;13.30;99.90;;;;;;5113444;28;20182;-73
2021/12/31 08:03:16;;;;;;;3.63;3.10;;;13.30;99.90;;;;;;5111734;28;20170;-72
2021/12/31 08:05:41;;;;;;;4.20;3.47;;;13.40;99.90;;;;;;5112318;28;20222;-72
2021/12/31 08:08:07;;;;;;;4.78;2.85;;;13.30;99.90;;;;;;5111694;28;20537;-72
2021/12/31 08:10:34;;;;;;;4.22;3.67;;;13.30;99.90;;;;;;5113300;28;20194;-73
2021/12/31 08:13:01;;;;;;;6.32;3.97;;;13.30;99.90;;;;;;5113227;28;20710;-73
2021/12/31 08:15:27;;;;;;;8.07;3.63;;;13.30;99.90;;;;;;5111731;28;20203;-73
2021/12/31 08:17:56;;;;;;;7.03;4.83;;;13.40;99.90;;;;;;5094710;28;20211;-73
2021/12/31 08:20:23;;;;;;;7.80;3.95;;;13.40;99.90;;;;;;5111905;28;20187;-73
2021/12/31 08:22:50;;;;;;;5.53;4.68;;;13.40;99.90;;;;;;5111731;28;20175;-73
2021/12/31 08:25:15;;;;;;;3.83;2.80;;;13.40;99.90;;;;;;5086566;28;20170;-73
2021/12/31 08:27:41;;;;;;;3.78;3.47;;;13.40;99.90;;;;;;5111371;28;20242;-72
2021/12/31 08:30:08;;;;;;;4.35;3.35;;;13.40;99.90;;;;;;5112735;28;20166;-72
2021/12/31 08:32:34;;;;;;;6.38;3.13;;;13.50;99.90;;;;;;5111684;28;20189;-73
2021/12/31 08:35:00;;;;;;;3.90;2.90;;;13.50;99.90;;;;;;5113142;28;20564;-75
2021/12/31 08:37:25;;;;;;;3.60;2.63;;;13.50;99.90;;;;;;5112857;28;20169;-73
2021/12/31 08:39:51;;;;;;;3.20;2.75;;;13.50;99.90;;;;;;5111621;28;20196;-73
2021/12/31 08:42:17;;;;;;;3.00;2.65;;;13.60;99.90;;;;;;5094582;28;20721;-73
2021/12/31 08:44:42;;;;;;;3.45;2.50;;;13.60;99.90;;;;;;5111528;28;20166;-74
2021/12/31 08:47:08;;;;;;;3.55;2.38;;;13.60;99.90;;;;;;5111538;28;20196;-72
2021/12/31 08:49:33;;;;;;;3.90;2.25;;;13.70;99.90;;;;;;5111480;28;20175;-72
2021/12/31 08:52:00;;;;;;;5.10;2.35;;;13.70;99.90;;;;;;5094337;28;20288;-72
2021/12/31 08:54:25;;;;;;;3.47;2.33;;;13.70;99.90;;;;;;5113180;28;20270;-73
2021/12/31 08:56:51;;;;;;;3.38;2.17;;;13.70;99.90;;;;;;5094693;28;20645;-74
2021/12/31 08:59:19;;;;;;;3.42;1.75;;;13.80;99.90;;;;;;5094207;28;20200;-72
2021/12/31 09:01:45;;;;;;;3.05;2.05;;;13.80;99.90;;;;;;5111181;28;20210;-73
2021/12/31 09:04:10;;;;;;;3.42;2.15;;;13.80;99.90;;;;;;5111411;28;20173;-73
2021/12/31 09:06:36;;;;;;;1.95;1.80;;;13.80;99.90;;;;;;5113601;28;20203;-73
2021/12/31 09:09:03;;;;;;;3.72;1.67;;;13.80;99.90;;;;;;5114868;28;20721;-74
2021/12/31 09:11:28;;;;;;;2.92;2.17;;;13.80;99.90;;;;;;5116332;28;20188;-72
2021/12/31 09:13:55;;;;;;;3.92;1.98;;;13.80;99.90;;;;;;5117019;28;20170;-72
2021/12/31 09:16:21;;;;;;;2.83;2.15;;;13.90;99.90;;;;;;5115977;28;20234;-72
2021/12/31 09:18:47;;;;;;;2.95;2.30;;;13.80;99.90;;;;;;5116087;28;20170;-73
2021/12/31 09:21:12;;;;;;;2.25;1.70;;;13.80;99.90;;;;;;5117675;28;20272;-73
2021/12/31 09:23:38;;;;;;;3.45;2.00;;;13.80;99.90;;;;;;5099411;28;20184;-72
2021/12/31 09:26:03;;;;;;;4.15;2.00;;;13.70;99.90;;;;;;5116626;28;20177;-72
2021/12/31 09:28:29;;;;;;;2.55;1.52;;;13.60;99.90;;;;;;5114362;28;20209;-72
2021/12/31 09:30:55;;;;;;;2.80;1.80;;;13.70;99.90;;;;;;5116143;28;20580;-72
2021/12/31 09:33:20;;;;;;;2.60;2.08;;;13.70;99.90;;;;;;5116171;28;20166;-72
2021/12/31 09:35:46;;;;;;;3.05;2.10;;;13.70;99.90;;;;;;5114449;28;20193;-72
2021/12/31 09:38:11;;;;;;;2.28;1.95;;;13.70;99.90;;;;;;5114204;28;20583;-73
2021/12/31 09:40:38;;;;;;;2.97;1.90;;;13.70;99.90;;;;;;5116130;28;20190;-72
2021/12/31 09:43:08;;;;;;;2.97;2.13;;;13.80;99.90;;;;;;5097613;28;20543;-73
2021/12/31 09:45:43;;;;;;;3.42;2.30;;;13.80;99.90;;;;;;5097124;28;20178;-77
2021/12/31 09:48:11;;;;;;;2.55;1.90;;;13.90;99.90;;;;;;5113996;28;20229;-72
2021/12/31 09:50:39;;;;;;;2.40;1.33;;;13.90;99.90;;;;;;5115654;28;20280;-73
2021/12/31 09:53:06;;;;;;;2.83;1.88;;;14.00;99.90;;;;;;5096361;28;20467;-72
2021/12/31 09:55:42;;;;;;;3.70;1.75;;;13.90;99.90;;;;;;5115475;28;20190;-72
2021/12/31 09:58:09;;;;;;;3.80;1.92;;;14.00;99.90;;;;;;5114259;28;20176;-73
2021/12/31 10:00:37;;;;;;;2.25;1.67;;;14.00;99.90;;;;;;5114697;28;20190;-73
2021/12/31 10:03:27;;;;;;;1.95;1.75;;;13.90;99.90;;;;;;5115415;28;20711;-73
2021/12/31 10:06:21;;;;;;;3.15;1.50;;;13.90;99.90;;;;;;5114115;28;20680;-73
2021/12/31 10:08:47;;;;;;;4.93;2.55;;;13.90;99.90;;;;;;5092799;28;20189;-73
2021/12/31 10:11:19;;;;;;;7.90;4.15;;;13.90;99.90;;;;;;5113968;28;20229;-75
2021/12/31 10:13:58;;;;;;;4.93;3.03;;;13.90;99.90;;;;;;5114129;28;20169;-74
2021/12/31 10:16:32;;;;;;;2.03;1.80;;;13.90;99.90;;;;;;5114126;28;20205;-72
2021/12/31 10:19:10;;;;;;;2.85;1.88;;;13.90;99.90;;;;;;5112838;28;20177;-74
2021/12/31 10:21:41;;;;;;;7.13;1.92;;;13.90;99.90;;;;;;5113609;28;20189;-73
2021/12/31 10:24:19;;;;;;;2.65;1.63;;;13.90;99.90;;;;;;5113879;28;20177;-73
2021/12/31 10:26:45;;;;;;;5.60;3.60;;;13.90;99.90;;;;;;5113367;28;20180;-72
2021/12/31 10:29:11;;;;;;;3.53;2.10;;;13.90;99.90;;;;;;5113591;28;20166;-73
2021/12/31 10:31:51;;;;;;;1.77;1.42;;;13.80;99.90;;;;;;5115074;28;20569;-73
2021/12/31 10:34:32;;;;;;;3.78;1.90;;;13.80;99.90;;;;;;5113990;28;20204;-73
2021/12/31 10:36:59;;;;;;;3.05;1.67;;;13.80;99.90;;;;;;5096811;28;20265;-72
2021/12/31 10:39:27;;;;;;;2.37;1.60;;;13.80;99.90;;;;;;5114244;28;20165;-74
2021/12/31 10:42:05;;;;;;;2.38;1.40;;;13.70;99.90;;;;;;5114062;28;20194;-74
2021/12/31 10:44:48;;;;;;;2.72;1.80;;;13.70;99.90;;;;;;5115645;28;20630;-73
2021/12/31 10:47:21;;;;;;;2.40;1.50;;;13.70;99.90;;;;;;5114071;28;20219;-73
2021/12/31 10:50:01;;;;;;;4.38;1.50;;;13.70;99.90;;;;;;5113961;28;20189;-73
2021/12/31 10:52:33;;;;;;;1.95;1.55;;;13.70;99.90;;;;;;5096856;28;20198;-75
2021/12/31 10:55:03;;;;;;;3.17;1.70;;;13.70;99.90;;;;;;5095012;28;20213;-73
2021/12/31 10:57:37;;;;;;;2.38;1.30;;;13.70;99.90;;;;;;5096596;28;20174;-73
2021/12/31 11:00:08;;;;;;;2.20;1.30;;;13.70;99.90;;;;;;5113448;28;20181;-73
2021/12/31 11:02:37;;;;;;;1.70;1.33;;;13.70;99.90;;;;;;5113342;28;20177;-73
2021/12/31 11:05:04;;;;;;;3.58;1.40;;;13.70;99.90;;;;;;5115471;28;20623;-73
2021/12/31 11:07:31;;;;;;;2.50;1.48;;;13.70;99.90;;;;;;5113447;28;20170;-73
2021/12/31 11:09:58;;;;;;;3.15;1.42;;;13.80;99.90;;;;;;5114696;28;20170;-73
2021/12/31 11:12:27;;;;;;;1.80;1.33;;;13.80;99.90;;;;;;5113095;28;20193;-73
2021/12/31 11:14:54;;;;;;;2.50;1.30;;;13.80;99.90;;;;;;5096614;28;20205;-73
2021/12/31 11:17:20;;;;;;;3.78;1.80;;;13.80;99.90;;;;;;5113163;28;20212;-73
2021/12/31 11:19:50;;;;;;;3.25;1.35;;;13.80;99.90;;;;;;5112934;28;20170;-73
2021/12/31 11:22:17;;;;;;;3.85;1.30;;;13.80;99.90;;;;;;5114669;28;20192;-73
2021/12/31 11:24:44;;;;;;;2.78;1.52;;;13.80;99.90;;;;;;5096020;28;20272;-72
2021/12/31 11:27:42;;;;;;;4.78;3.30;;;13.80;99.90;;;;;;5113052;28;20649;-73
2021/12/31 11:30:38;;;;;;;3.47;3.00;;;13.90;99.90;;;;;;5113384;28;20260;-74
2021/12/31 11:33:18;;;;;;;5.97;2.47;;;13.90;99.90;;;;;;5112734;28;20193;-74
2021/12/31 11:35:46;;;;;;;2.72;1.63;;;13.90;99.90;;;;;;5112472;28;20288;-72
2021/12/31 11:38:23;;;;;;;3.05;1.23;;;13.90;99.90;;;;;;5112083;28;20158;-73
2021/12/31 11:41:18;;;;;;;2.42;1.55;;;13.80;99.90;;;;;;5111817;28;20280;-72
2021/12/31 11:43:44;;;;;;;3.75;1.50;;;13.80;99.90;;;;;;5113066;28;20562;-73
2021/12/31 11:46:12;;;;;;;4.97;1.70;;;13.70;99.90;;;;;;5111694;28;20257;-72
2021/12/31 11:48:47;;;;;;;5.30;1.90;;;13.70;99.90;;;;;;5094359;28;20174;-73
2021/12/31 11:51:18;;;;;;;5.25;1.25;;;13.70;99.90;;;;;;5094391;28;20532;-73
2021/12/31 11:53:57;;;;;;;4.00;1.20;;;13.70;99.90;;;;;;5111529;28;20169;-72
2021/12/31 11:56:38;;;;;;;1.40;1.30;;;13.70;99.90;;;;;;5110947;28;20211;-72
2021/12/31 11:59:16;;;;;;;2.95;1.15;;;13.70;99.90;;;;;;5110626;28;20170;-72
2021/12/31 12:01:47;;;;;;;3.47;1.95;;;13.70;99.90;;;;;;5110827;28;20189;-72
2021/12/31 12:04:19;;;;;;;4.72;1.55;;;13.70;99.90;;;;;;5112534;28;20173;-73
2021/12/31 12:06:56;;;;;;;2.47;1.38;;;13.60;99.90;;;;;;5111158;28;20256;-72
2021/12/31 12:09:37;;;;;;;2.25;1.40;;;13.60;99.90;;;;;;5110919;28;20169;-74
2021/12/31 12:12:05;;;;;;;4.20;1.90;;;13.70;99.90;;;;;;5110790;28;20181;-71
2021/12/31 12:14:38;;;;;;;3.97;1.40;;;13.70;99.90;;;;;;5093891;28;20200;-72
2021/12/31 12:17:04;;;;;;;3.00;2.28;;;13.70;99.90;;;;;;5093814;28;20176;-72
2021/12/31 12:19:50;;;;;;;3.28;1.88;;;13.70;99.90;;;;;;5110577;28;20428;-72
2021/12/31 12:22:33;;;;;;;2.17;1.27;;;13.70;99.90;;;;;;5093611;28;20192;-73
2021/12/31 12:25:01;;;;;;;2.03;1.75;;;13.80;99.90;;;;;;5111002;28;20169;-71
2021/12/31 12:27:27;;;;;;;3.00;1.42;;;13.80;99.90;;;;;;5094036;28;20650;-72
2021/12/31 12:29:54;;;;;;;3.13;1.40;;;13.80;99.90;;;;;;5112475;28;20219;-72
2021/12/31 12:35:16;;;;;;;2.72;1.02;;;13.90;99.90;;;;;;5112302;28;20570;-72
2021/12/31 12:37:43;;;;;;;2.28;1.40;;;14.00;99.90;;;;;;5111943;28;20205;-72
2021/12/31 12:40:10;;;;;;;3.53;1.58;;;14.00;99.90;;;;;;5110920;28;20249;-72
2021/12/31 12:42:35;;;;;;;1.25;0.98;;;14.00;99.90;;;;;;5113934;28;20182;-72
2021/12/31 12:45:07;;;;;;;4.07;1.60;;;14.10;99.90;;;;;;5116204;28;20228;-74
2021/12/31 12:47:34;;;;;;;2.60;1.58;;;14.10;99.90;;;;;;5115436;28;20529;-72
2021/12/31 12:50:04;;;;;;;3.17;1.55;;;14.20;99.90;;;;;;5114352;28;20192;-72
2021/12/31 12:52:30;;;;;;;3.22;1.50;;;14.20;99.90;;;;;;5114977;28;20680;-72
2021/12/31 12:55:08;;;;;;;1.85;1.23;;;14.20;99.90;;;;;;5114616;28;20201;-72
2021/12/31 12:57:33;;;;;;;1.33;1.13;;;14.20;99.90;;;;;;5115045;28;20169;-72